Flugplatz Bad Neuenahr-Ahrweiler

Für EDRA sind keine METAR/TAF Berichte vorhanden.
Es werden die Flugwettermeldungen vom Flugplatz Cologne Bonn in 34 km Entfernung angezeigt.

Bericht für EDDK

vom 25.10. um 16:50 UTC

Wind 5 kt aus 240°

Sichtweite 10 km oder mehr

Regen

gering bewölkt in 3300 ft

aufgebrochene Bewölkung in 4300 ft

Temperatur 12.0°C

Taupunkt 10.0°C

Luftfeuchtigkeit 88%

Luftdruck 1018 hPa

EDDK 251650Z 24005KT 200V290 9999 RA FEW033 BKN043 12/10 Q1018 BECMG NSW

Prognose für EDDK

vom 25.10. um 11:00 UTC

Zwischen 12:00 UTC und 08:00 UTC

Wind 5 kt aus 170°

Sichtweite 10 km oder mehr

aufgebrochene Bewölkung in 4000 ft


Am 26.10. zwischen 03:00 UTC und 09:00 UTC zeitweise

aufgebrochene Bewölkung in 1200 ft


Am 26.10. zwischen 04:00 UTC und 08:00 UTC zeitweise mit einer Wahrscheinlichkeit von 30%

aufgebrochene Bewölkung in 800 ft


Am 26.10. zwischen 08:00 und 11:00 UTC übergehend zu

Wind 7 kt aus 230°

Sichtweite 10 km oder mehr

aufgebrochene Bewölkung in 4000 ft

TAF EDDK 251100Z 2512/2618 17005KT 9999 BKN040 TEMPO 2603/2609 BKN012 PROB30 TEMPO 2604/2608 BKN008 BECMG 2608/2611 23007KT
Impressum